Pagina principale
METAR-TAF:

METAR-TAF

Aeroporti :

Aeroporto di Pyongyang-Sunan

Pyongyang, Corea del Nord

latitudine: 39-02N, longitudine: 125-47E, altezza: 36 m

METAR: mancante

Ora: 08:01 (23:31 UTC)

Previsione

Il bollettino è stato emesso 19 ore e 31 minuti fa, alle 04:00 UTC
Previsione valida dal 21 alle 06 UTC al 22 alle 06 UTC
Vento 6 kt da sud-est
Visibilità: 8000 m
Nubi sparse ad un'altezza di 700 ft
Cielo coperto ad un'altezza di 1700 ft
Evoluzione graduale
dal 21 alle 10 UTC al 21 alle 12 UTC
Vento 6 kt da sud/sud-ovest
Temporaneamente
dal 21 alle 12 UTC al 21 alle 17 UTC
Visibilità: 5000 m
Cielo coperto ad un'altezza di 2000 ft
pioggia debole
Evoluzione graduale
dal 21 alle 23 UTC al 22 alle 01 UTC
Nuvoloso ad un'altezza di 1700 ft

TAF: ZKPY 210400Z 2106/2206 13003MPS 8000 SCT007 OVC017 BECMG 2110/2112 21003MPS TEMPO 2112/2117 5000 -RA OVC020 BECMG 2123/2201 BKN017 TX21/2107Z TN16/2121Z

Osservazioni e previsioni meteorologiche di più di 4000 aeroporti (messaggi METAR e TAF).

Le stazioni disponibili sono rappresentate dai dischi gialli e rossi sulla carta.

Puntare il mouse per vedere il nome della stazione.

Clicca sopra per visualizzare le osservazioni e previsioni meteorologiche.

Per cambiare la mappa : fare clic sui pulsanti verdi con una croce nera per ingrandire, il pulsante verde con un trattino per diminuire, o sulla freccia verde per le mappe adiacenti.


METAR-TAF: